Terminal Aerodrome Forecast
Issued by NWS Charleston, WV

Home | Current Version | Previous Version | Text Only | Print | Product List | Glossary On
Versions: 1 2 3 4 5 6 7 8 9 10 11 12 13 14 15 16 17 18 19 20 21 22 23 24
846
FTUS41 KRLX 171126
TAFPKB
TAF
KPKB 171126Z 1712/1812 30003KT 4SM -SHSN OVC015
      TEMPO 1712/1714 1SM -SN OVC008
     FM171400 00000KT 6SM -SN BKN025
     FM171800 28003KT P6SM BKN025
     FM180500 24005KT P6SM SCT100=

USA.gov is the U.S. government's official web portal to all federal, state and local government web resources and services.